sensor_id;sensor_type;location;lat;lon;timestamp;pressure;altitude;pressure_sealevel;temperature;humidity
70407;BME280;57821;52.202;0.154;2023-04-29T00:02:10;101835.16;;;9.22;82.18
70407;BME280;57821;52.202;0.154;2023-04-29T00:04:37;101829.84;;;9.13;82.20
70407;BME280;57821;52.202;0.154;2023-04-29T00:07:03;101832.25;;;9.05;82.67
70407;BME280;57821;52.202;0.154;2023-04-29T00:09:30;101824.34;;;8.96;82.75
70407;BME280;57821;52.202;0.154;2023-04-29T00:11:56;101829.34;;;8.89;83.12
70407;BME280;57821;52.202;0.154;2023-04-29T00:14:23;101836.09;;;8.82;82.99
70407;BME280;57821;52.202;0.154;2023-04-29T00:16:49;101829.88;;;8.74;83.02
70407;BME280;57821;52.202;0.154;2023-04-29T00:19:16;101828.00;;;8.65;83.78
70407;BME280;57821;52.202;0.154;2023-04-29T00:21:43;101832.16;;;8.59;84.11
70407;BME280;57821;52.202;0.154;2023-04-29T00:24:10;101830.28;;;8.52;84.00
70407;BME280;57821;52.202;0.154;2023-04-29T00:26:36;101832.72;;;8.46;84.46
70407;BME280;57821;52.202;0.154;2023-04-29T00:29:02;101842.09;;;8.41;84.21
70407;BME280;57821;52.202;0.154;2023-04-29T00:31:29;101850.53;;;8.34;84.24
70407;BME280;57821;52.202;0.154;2023-04-29T00:33:56;101846.97;;;8.29;84.22
70407;BME280;57821;52.202;0.154;2023-04-29T00:36:22;101846.81;;;8.22;84.57
70407;BME280;57821;52.202;0.154;2023-04-29T00:38:49;101851.00;;;8.17;84.84
70407;BME280;57821;52.202;0.154;2023-04-29T00:41:15;101847.41;;;8.11;84.87
70407;BME280;57821;52.202;0.154;2023-04-29T00:43:42;101848.19;;;8.07;85.05
70407;BME280;57821;52.202;0.154;2023-04-29T00:46:08;101846.31;;;8.01;85.19
70407;BME280;57821;52.202;0.154;2023-04-29T00:48:35;101850.56;;;7.98;85.14
70407;BME280;57821;52.202;0.154;2023-04-29T00:51:04;101838.22;;;7.88;85.34
70407;BME280;57821;52.202;0.154;2023-04-29T00:53:31;101858.06;;;7.89;85.96
70407;BME280;57821;52.202;0.154;2023-04-29T00:55:58;101857.94;;;7.84;85.21
70407;BME280;57821;52.202;0.154;2023-04-29T00:58:25;101863.03;;;7.81;85.68
70407;BME280;57821;52.202;0.154;2023-04-29T01:00:52;101859.44;;;7.76;85.78
70407;BME280;57821;52.202;0.154;2023-04-29T01:03:21;101860.22;;;7.72;85.92
70407;BME280;57821;52.202;0.154;2023-04-29T01:08:45;101842.56;;;7.54;86.72
70407;BME280;57821;52.202;0.154;2023-04-29T01:11:15;101844.31;;;7.55;87.78
70407;BME280;57821;52.202;0.154;2023-04-29T01:13:50;101846.69;;;7.48;86.57
70407;BME280;57821;52.202;0.154;2023-04-29T01:19:11;101850.78;;;7.39;86.70
70407;BME280;57821;52.202;0.154;2023-04-29T01:21:45;101850.69;;;7.36;86.88
70407;BME280;57821;52.202;0.154;2023-04-29T01:24:12;101860.06;;;7.33;86.49
70407;BME280;57821;52.202;0.154;2023-04-29T01:26:41;101853.91;;;7.28;86.57
70407;BME280;57821;52.202;0.154;2023-04-29T01:29:40;101850.28;;;7.21;87.17
70407;BME280;57821;52.202;0.154;2023-04-29T01:32:17;101867.53;;;7.24;87.25
70407;BME280;57821;52.202;0.154;2023-04-29T01:37:48;101875.94;;;7.17;87.83
70407;BME280;57821;52.202;0.154;2023-04-29T01:40:25;101868.06;;;7.12;87.41
70407;BME280;57821;52.202;0.154;2023-04-29T01:43:17;101869.47;;;7.01;86.99
70407;BME280;57821;52.202;0.154;2023-04-29T01:45:46;101869.47;;;7.01;87.92
70407;BME280;57821;52.202;0.154;2023-04-29T01:48:15;101869.41;;;6.98;87.68
70407;BME280;57821;52.202;0.154;2023-04-29T01:50:42;101870.09;;;6.92;88.31
70407;BME280;57821;52.202;0.154;2023-04-29T01:53:10;101873.50;;;6.91;88.44
70407;BME280;57821;52.202;0.154;2023-04-29T01:55:38;101882.00;;;6.89;88.76
70407;BME280;57821;52.202;0.154;2023-04-29T01:58:16;101873.28;;;6.84;88.47
70407;BME280;57821;52.202;0.154;2023-04-29T02:00:49;101875.84;;;6.84;88.32
70407;BME280;57821;52.202;0.154;2023-04-29T02:03:16;101878.38;;;6.81;88.55
70407;BME280;57821;52.202;0.154;2023-04-29T02:05:46;101877.38;;;6.77;87.93
70407;BME280;57821;52.202;0.154;2023-04-29T02:08:13;101879.00;;;6.74;88.13
70407;BME280;57821;52.202;0.154;2023-04-29T02:10:57;101878.00;;;6.70;88.33
70407;BME280;57821;52.202;0.154;2023-04-29T02:13:41;101890.00;;;6.68;88.44
70407;BME280;57821;52.202;0.154;2023-04-29T02:16:11;101881.28;;;6.65;88.40
70407;BME280;57821;52.202;0.154;2023-04-29T02:18:56;101880.38;;;6.63;88.90
70407;BME280;57821;52.202;0.154;2023-04-29T02:21:23;101892.34;;;6.60;88.43
70407;BME280;57821;52.202;0.154;2023-04-29T02:23:49;101891.41;;;6.58;89.07
70407;BME280;57821;52.202;0.154;2023-04-29T02:26:16;101888.81;;;6.57;88.51
70407;BME280;57821;52.202;0.154;2023-04-29T02:28:42;101893.91;;;6.55;88.26
70407;BME280;57821;52.202;0.154;2023-04-29T02:31:09;101888.66;;;6.52;88.92
70407;BME280;57821;52.202;0.154;2023-04-29T02:33:35;101891.97;;;6.48;89.26
70407;BME280;57821;52.202;0.154;2023-04-29T02:36:02;101902.19;;;6.45;88.24
70407;BME280;57821;52.202;0.154;2023-04-29T02:38:29;101892.59;;;6.41;89.07
70407;BME280;57821;52.202;0.154;2023-04-29T02:40:55;101899.38;;;6.38;88.93
70407;BME280;57821;52.202;0.154;2023-04-29T02:43:22;101894.97;;;6.35;88.59
70407;BME280;57821;52.202;0.154;2023-04-29T02:45:48;101900.97;;;6.34;88.59
70407;BME280;57821;52.202;0.154;2023-04-29T02:48:15;101900.03;;;6.32;88.55
70407;BME280;57821;52.202;0.154;2023-04-29T02:50:41;101898.28;;;6.31;88.95
70407;BME280;57821;52.202;0.154;2023-04-29T02:53:08;101902.50;;;6.29;88.72
70407;BME280;57821;52.202;0.154;2023-04-29T02:55:34;101911.03;;;6.27;89.26
70407;BME280;57821;52.202;0.154;2023-04-29T02:58:06;101908.34;;;6.24;89.50
70407;BME280;57821;52.202;0.154;2023-04-29T03:00:32;101910.06;;;6.23;88.56
70407;BME280;57821;52.202;0.154;2023-04-29T03:02:59;101911.72;;;6.21;89.23
70407;BME280;57821;52.202;0.154;2023-04-29T03:05:26;101913.34;;;6.19;88.62
70407;BME280;57821;52.202;0.154;2023-04-29T03:07:53;101909.88;;;6.17;89.41
70407;BME280;57821;52.202;0.154;2023-04-29T03:10:19;101914.91;;;6.14;88.63
70407;BME280;57821;52.202;0.154;2023-04-29T03:12:46;101911.41;;;6.12;89.24
70407;BME280;57821;52.202;0.154;2023-04-29T03:15:14;101913.81;;;6.07;88.89
70407;BME280;57821;52.202;0.154;2023-04-29T03:17:41;101915.50;;;6.05;89.00
70407;BME280;57821;52.202;0.154;2023-04-29T03:20:07;101909.41;;;6.03;89.80
70407;BME280;57821;52.202;0.154;2023-04-29T03:22:34;101908.38;;;5.98;88.69
70407;BME280;57821;52.202;0.154;2023-04-29T03:25:00;101919.50;;;5.97;89.10
70407;BME280;57821;52.202;0.154;2023-04-29T03:27:27;101922.03;;;5.96;89.02
70407;BME280;57821;52.202;0.154;2023-04-29T03:29:54;101915.09;;;5.93;89.91
70407;BME280;57821;52.202;0.154;2023-04-29T03:32:21;101915.84;;;5.91;89.86
70407;BME280;57821;52.202;0.154;2023-04-29T03:34:48;101915.75;;;5.88;89.97
70407;BME280;57821;52.202;0.154;2023-04-29T03:37:37;101917.38;;;5.86;90.07
70407;BME280;57821;52.202;0.154;2023-04-29T03:40:18;101901.72;;;5.79;89.89
70407;BME280;57821;52.202;0.154;2023-04-29T03:42:47;101917.22;;;5.81;89.92
70407;BME280;57821;52.202;0.154;2023-04-29T03:45:14;101912.75;;;5.77;89.37
70407;BME280;57821;52.202;0.154;2023-04-29T03:47:40;101913.63;;;5.76;89.91
70407;BME280;57821;52.202;0.154;2023-04-29T03:50:07;101912.56;;;5.71;90.46
70407;BME280;57821;52.202;0.154;2023-04-29T03:52:34;101913.44;;;5.71;89.64
70407;BME280;57821;52.202;0.154;2023-04-29T03:55:05;101916.72;;;5.67;90.46
70407;BME280;57821;52.202;0.154;2023-04-29T03:57:32;101916.63;;;5.64;90.41
70407;BME280;57821;52.202;0.154;2023-04-29T03:59:59;101920.78;;;5.61;90.54
70407;BME280;57821;52.202;0.154;2023-04-29T04:02:26;101924.16;;;5.58;90.62
70407;BME280;57821;52.202;0.154;2023-04-29T04:04:53;101918.94;;;5.57;90.83
70407;BME280;57821;52.202;0.154;2023-04-29T04:07:20;101921.44;;;5.55;90.67
70407;BME280;57821;52.202;0.154;2023-04-29T04:10:07;101912.81;;;5.53;90.88
70407;BME280;57821;52.202;0.154;2023-04-29T04:12:34;101923.88;;;5.51;89.97
70407;BME280;57821;52.202;0.154;2023-04-29T04:15:00;101926.28;;;5.46;90.80
70407;BME280;57821;52.202;0.154;2023-04-29T04:17:27;101927.91;;;5.44;90.59
70407;BME280;57821;52.202;0.154;2023-04-29T04:19:54;101935.56;;;5.43;89.62
70407;BME280;57821;52.202;0.154;2023-04-29T04:22:21;101935.53;;;5.41;90.59
70407;BME280;57821;52.202;0.154;2023-04-29T04:25:04;101941.50;;;5.40;90.21
70407;BME280;57821;52.202;0.154;2023-04-29T04:27:32;101949.16;;;5.38;90.61
70407;BME280;57821;52.202;0.154;2023-04-29T04:30:02;101949.09;;;5.37;90.73
70407;BME280;57821;52.202;0.154;2023-04-29T04:32:30;101953.31;;;5.35;90.15
70407;BME280;57821;52.202;0.154;2023-04-29T04:34:57;101954.19;;;5.35;91.04
70407;BME280;57821;52.202;0.154;2023-04-29T04:37:25;101946.41;;;5.34;91.00
70407;BME280;57821;52.202;0.154;2023-04-29T04:39:55;101943.78;;;5.32;90.62
70407;BME280;57821;52.202;0.154;2023-04-29T04:42:22;101949.72;;;5.30;89.86
70407;BME280;57821;52.202;0.154;2023-04-29T04:44:52;101954.84;;;5.30;90.13
70407;BME280;57821;52.202;0.154;2023-04-29T04:47:33;101965.94;;;5.29;90.51
70407;BME280;57821;52.202;0.154;2023-04-29T04:50:05;101968.53;;;5.29;91.28
70407;BME280;57821;52.202;0.154;2023-04-29T04:52:32;101977.06;;;5.28;90.51
70407;BME280;57821;52.202;0.154;2023-04-29T04:55:14;101977.16;;;5.31;90.31
70407;BME280;57821;52.202;0.154;2023-04-29T04:57:44;101990.06;;;5.32;90.65
70407;BME280;57821;52.202;0.154;2023-04-29T05:00:11;101994.47;;;5.35;91.21
70407;BME280;57821;52.202;0.154;2023-04-29T05:02:38;101995.38;;;5.37;91.27
70407;BME280;57821;52.202;0.154;2023-04-29T05:05:05;102000.59;;;5.38;90.39
70407;BME280;57821;52.202;0.154;2023-04-29T05:07:35;102004.09;;;5.41;91.60
70407;BME280;57821;52.202;0.154;2023-04-29T05:10:03;102005.09;;;5.44;91.80
70407;BME280;57821;52.202;0.154;2023-04-29T05:12:31;102012.09;;;5.48;91.06
70407;BME280;57821;52.202;0.154;2023-04-29T05:15:00;102015.59;;;5.50;92.05
70407;BME280;57821;52.202;0.154;2023-04-29T05:17:28;102020.88;;;5.53;91.83
70407;BME280;57821;52.202;0.154;2023-04-29T05:19:55;102026.13;;;5.56;92.09
70407;BME280;57821;52.202;0.154;2023-04-29T05:22:22;102025.38;;;5.59;92.11
70407;BME280;57821;52.202;0.154;2023-04-29T05:24:48;102025.59;;;5.65;92.67
70407;BME280;57821;52.202;0.154;2023-04-29T05:27:15;102025.78;;;5.71;92.78
70407;BME280;57821;52.202;0.154;2023-04-29T05:29:42;102024.31;;;5.77;93.07
70407;BME280;57821;52.202;0.154;2023-04-29T05:32:10;102025.47;;;5.86;93.05
70407;BME280;57821;52.202;0.154;2023-04-29T05:34:37;102024.84;;;5.91;93.59
70407;BME280;57821;52.202;0.154;2023-04-29T05:37:04;102033.72;;;5.99;93.96
70407;BME280;57821;52.202;0.154;2023-04-29T05:39:39;102034.78;;;6.06;94.11
70407;BME280;57821;52.202;0.154;2023-04-29T05:42:11;102041.91;;;6.13;94.63
70407;BME280;57821;52.202;0.154;2023-04-29T05:44:43;102036.09;;;6.18;94.99
70407;BME280;57821;52.202;0.154;2023-04-29T05:47:10;102037.25;;;6.27;94.25
70407;BME280;57821;52.202;0.154;2023-04-29T05:49:38;102048.63;;;6.33;94.81
70407;BME280;57821;52.202;0.154;2023-04-29T05:52:04;102043.63;;;6.38;94.43
70407;BME280;57821;52.202;0.154;2023-04-29T05:54:35;102045.59;;;6.45;94.85
70407;BME280;57821;52.202;0.154;2023-04-29T05:57:02;102048.31;;;6.49;94.75
70407;BME280;57821;52.202;0.154;2023-04-29T05:59:29;102050.16;;;6.53;94.87
70407;BME280;57821;52.202;0.154;2023-04-29T06:01:59;102046.03;;;6.58;94.77
70407;BME280;57821;52.202;0.154;2023-04-29T06:04:26;102044.44;;;6.62;95.20
70407;BME280;57821;52.202;0.154;2023-04-29T06:07:12;102051.56;;;6.69;95.29
70407;BME280;57821;52.202;0.154;2023-04-29T06:09:49;102052.59;;;6.76;94.92
70407;BME280;57821;52.202;0.154;2023-04-29T06:12:16;102051.97;;;6.83;94.83
70407;BME280;57821;52.202;0.154;2023-04-29T06:14:45;102055.63;;;6.89;95.28
70407;BME280;57821;52.202;0.154;2023-04-29T06:17:12;102057.59;;;6.96;95.22
70407;BME280;57821;52.202;0.154;2023-04-29T06:19:39;102056.97;;;7.05;95.31
70407;BME280;57821;52.202;0.154;2023-04-29T06:22:08;102053.78;;;7.12;95.01
70407;BME280;57821;52.202;0.154;2023-04-29T06:24:37;102063.50;;;7.21;95.39
70407;BME280;57821;52.202;0.154;2023-04-29T06:27:05;102068.94;;;7.30;94.95
70407;BME280;57821;52.202;0.154;2023-04-29T06:29:31;102060.50;;;7.35;95.76
70407;BME280;57821;52.202;0.154;2023-04-29T06:31:58;102075.53;;;7.49;95.28
70407;BME280;57821;52.202;0.154;2023-04-29T06:34:26;102073.22;;;7.58;95.40
70407;BME280;57821;52.202;0.154;2023-04-29T06:37:21;102084.81;;;7.72;95.62
70407;BME280;57821;52.202;0.154;2023-04-29T06:40:00;102078.38;;;7.88;95.22
70407;BME280;57821;52.202;0.154;2023-04-29T06:43:02;102081.44;;;8.04;95.55
70407;BME280;57821;52.202;0.154;2023-04-29T06:45:40;102079.28;;;8.19;95.14
70407;BME280;57821;52.202;0.154;2023-04-29T06:48:16;102070.00;;;8.27;94.64
70407;BME280;57821;52.202;0.154;2023-04-29T06:50:56;102073.19;;;8.49;94.49
70407;BME280;57821;52.202;0.154;2023-04-29T06:53:23;102078.75;;;8.64;95.18
70407;BME280;57821;52.202;0.154;2023-04-29T06:55:50;102084.31;;;8.79;94.96
70407;BME280;57821;52.202;0.154;2023-04-29T06:58:19;102085.56;;;8.95;94.60
70407;BME280;57821;52.202;0.154;2023-04-29T07:00:47;102086.75;;;9.09;94.62
70407;BME280;57821;52.202;0.154;2023-04-29T07:03:15;102090.63;;;9.28;93.79
70407;BME280;57821;52.202;0.154;2023-04-29T07:05:42;102088.41;;;9.44;94.19
70407;BME280;57821;52.202;0.154;2023-04-29T07:08:09;102089.69;;;9.63;93.80
70407;BME280;57821;52.202;0.154;2023-04-29T07:10:35;102089.22;;;9.81;94.04
70407;BME280;57821;52.202;0.154;2023-04-29T07:13:02;102087.91;;;10.01;93.63
70407;BME280;57821;52.202;0.154;2023-04-29T07:15:29;102083.91;;;10.17;93.36
70407;BME280;57821;52.202;0.154;2023-04-29T07:17:56;102089.44;;;10.35;93.07
70407;BME280;57821;52.202;0.154;2023-04-29T07:20:23;102088.81;;;10.48;92.50
70407;BME280;57821;52.202;0.154;2023-04-29T07:22:50;102089.91;;;10.62;91.92
70407;BME280;57821;52.202;0.154;2023-04-29T07:25:16;102091.03;;;10.78;91.19
70407;BME280;57821;52.202;0.154;2023-04-29T07:27:43;102091.25;;;10.90;90.33
70407;BME280;57821;52.202;0.154;2023-04-29T07:30:09;102085.34;;;10.99;89.66
70407;BME280;57821;52.202;0.154;2023-04-29T07:32:36;102084.63;;;11.09;88.92
70407;BME280;57821;52.202;0.154;2023-04-29T07:35:04;102085.63;;;11.17;87.58
70407;BME280;57821;52.202;0.154;2023-04-29T07:37:30;102085.81;;;11.29;87.99
70407;BME280;57821;52.202;0.154;2023-04-29T07:39:57;102092.03;;;11.40;87.01
70407;BME280;57821;52.202;0.154;2023-04-29T07:42:24;102101.72;;;11.53;86.63
70407;BME280;57821;52.202;0.154;2023-04-29T07:44:50;102093.22;;;11.64;85.30
70407;BME280;57821;52.202;0.154;2023-04-29T07:47:18;102097.63;;;11.72;85.12
70407;BME280;57821;52.202;0.154;2023-04-29T07:49:44;102102.13;;;11.82;83.64
70407;BME280;57821;52.202;0.154;2023-04-29T07:52:11;102103.06;;;11.89;83.02
70407;BME280;57821;52.202;0.154;2023-04-29T07:54:37;102111.03;;;12.01;83.25
70407;BME280;57821;52.202;0.154;2023-04-29T07:57:04;102106.00;;;12.15;82.21
70407;BME280;57821;52.202;0.154;2023-04-29T07:59:31;102107.88;;;12.28;81.96
70407;BME280;57821;52.202;0.154;2023-04-29T08:01:58;102111.47;;;12.39;82.03
70407;BME280;57821;52.202;0.154;2023-04-29T08:04:24;102106.38;;;12.53;81.17
70407;BME280;57821;52.202;0.154;2023-04-29T08:07:03;102116.09;;;12.69;80.77
70407;BME280;57821;52.202;0.154;2023-04-29T08:09:29;102119.66;;;12.80;80.06
70407;BME280;57821;52.202;0.154;2023-04-29T08:11:56;102117.16;;;12.92;80.12
70407;BME280;57821;52.202;0.154;2023-04-29T08:14:22;102113.78;;;13.02;79.73
70407;BME280;57821;52.202;0.154;2023-04-29T08:16:49;102118.22;;;13.14;79.01
70407;BME280;57821;52.202;0.154;2023-04-29T08:19:15;102123.56;;;13.28;79.38
70407;BME280;57821;52.202;0.154;2023-04-29T08:21:42;102129.69;;;13.42;78.79
70407;BME280;57821;52.202;0.154;2023-04-29T08:24:08;102128.03;;;13.50;77.60
70407;BME280;57821;52.202;0.154;2023-04-29T08:26:35;102132.41;;;13.58;77.73
70407;BME280;57821;52.202;0.154;2023-04-29T08:29:01;102141.16;;;13.71;77.64
70407;BME280;57821;52.202;0.154;2023-04-29T08:31:27;102144.69;;;13.81;75.90
70407;BME280;57821;52.202;0.154;2023-04-29T08:33:54;102136.91;;;13.88;75.93
70407;BME280;57821;52.202;0.154;2023-04-29T08:36:20;102137.81;;;13.95;75.62
70407;BME280;57821;52.202;0.154;2023-04-29T08:38:47;102136.97;;;14.02;74.95
70407;BME280;57821;52.202;0.154;2023-04-29T08:41:13;102148.28;;;14.10;74.53
70407;BME280;57821;52.202;0.154;2023-04-29T08:43:40;102140.50;;;14.16;73.59
70407;BME280;57821;52.202;0.154;2023-04-29T08:46:07;102139.66;;;14.20;73.26
70407;BME280;57821;52.202;0.154;2023-04-29T08:48:35;102145.75;;;14.27;72.94
70407;BME280;57821;52.202;0.154;2023-04-29T08:51:02;102148.38;;;14.31;72.06
70407;BME280;57821;52.202;0.154;2023-04-29T08:53:29;102149.25;;;14.32;71.36
70407;BME280;57821;52.202;0.154;2023-04-29T08:55:57;102137.06;;;14.25;70.56
70407;BME280;57821;52.202;0.154;2023-04-29T08:58:27;102144.03;;;14.30;71.01
70407;BME280;57821;52.202;0.154;2023-04-29T09:00:55;102156.25;;;14.37;71.46
70407;BME280;57821;52.202;0.154;2023-04-29T09:03:49;102152.78;;;14.46;70.76
70407;BME280;57821;52.202;0.154;2023-04-29T09:06:19;102158.91;;;14.59;71.18
70407;BME280;57821;52.202;0.154;2023-04-29T09:08:46;102158.91;;;14.68;70.45
70407;BME280;57821;52.202;0.154;2023-04-29T09:11:13;102163.31;;;14.76;69.61
70407;BME280;57821;52.202;0.154;2023-04-29T09:13:40;102156.31;;;14.80;69.27
70407;BME280;57821;52.202;0.154;2023-04-29T09:16:12;102159.81;;;14.88;69.12
70407;BME280;57821;52.202;0.154;2023-04-29T09:23:57;102145.91;;;14.88;66.59
70407;BME280;57821;52.202;0.154;2023-04-29T09:26:24;102154.59;;;14.87;67.63
70407;BME280;57821;52.202;0.154;2023-04-29T09:29:12;102152.84;;;14.86;67.29
70407;BME280;57821;52.202;0.154;2023-04-29T09:31:39;102162.44;;;14.97;67.21
70407;BME280;57821;52.202;0.154;2023-04-29T09:34:06;102162.47;;;14.96;65.60
70407;BME280;57821;52.202;0.154;2023-04-29T09:36:50;102170.28;;;14.94;65.26
70407;BME280;57821;52.202;0.154;2023-04-29T09:39:19;102164.19;;;14.95;66.54
70407;BME280;57821;52.202;0.154;2023-04-29T09:44:15;102164.19;;;14.95;65.46
70407;BME280;57821;52.202;0.154;2023-04-29T09:46:42;102169.41;;;14.89;65.85
70407;BME280;57821;52.202;0.154;2023-04-29T09:49:28;102168.53;;;14.89;65.93
70407;BME280;57821;52.202;0.154;2023-04-29T09:51:59;102167.69;;;14.96;66.62
70407;BME280;57821;52.202;0.154;2023-04-29T09:54:28;102169.41;;;15.09;66.37
70407;BME280;57821;52.202;0.154;2023-04-29T09:56:56;102175.50;;;15.35;67.89
70407;BME280;57821;52.202;0.154;2023-04-29T09:59:23;102169.34;;;15.74;67.82
70407;BME280;57821;52.202;0.154;2023-04-29T10:01:51;102172.69;;;16.14;65.86
70407;BME280;57821;52.202;0.154;2023-04-29T10:04:20;102175.97;;;16.59;66.18
70407;BME280;57821;52.202;0.154;2023-04-29T10:06:53;102172.97;;;17.13;66.61
70407;BME280;57821;52.202;0.154;2023-04-29T10:09:22;102169.00;;;17.66;65.92
70407;BME280;57821;52.202;0.154;2023-04-29T10:11:50;102175.41;;;18.17;65.33
70407;BME280;57821;52.202;0.154;2023-04-29T10:14:20;102159.09;;;18.60;61.91
70407;BME280;57821;52.202;0.154;2023-04-29T10:17:02;102163.72;;;19.01;60.70
70407;BME280;57821;52.202;0.154;2023-04-29T10:19:38;102173.50;;;19.43;59.34
70407;BME280;57821;52.202;0.154;2023-04-29T10:22:08;102176.31;;;19.82;58.13
70407;BME280;57821;52.202;0.154;2023-04-29T10:24:36;102172.72;;;20.27;59.71
70407;BME280;57821;52.202;0.154;2023-04-29T10:27:08;102179.59;;;20.76;57.72
70407;BME280;57821;52.202;0.154;2023-04-29T10:29:36;102177.78;;;21.15;56.04
70407;BME280;57821;52.202;0.154;2023-04-29T10:32:03;102172.59;;;21.46;52.65
70407;BME280;57821;52.202;0.154;2023-04-29T10:34:30;102159.78;;;21.63;50.79
70407;BME280;57821;52.202;0.154;2023-04-29T10:36:58;102172.22;;;21.90;49.45
70407;BME280;57821;52.202;0.154;2023-04-29T10:39:34;102160.03;;;22.17;48.70
70407;BME280;57821;52.202;0.154;2023-04-29T10:42:03;102156.88;;;22.34;50.95
70407;BME280;57821;52.202;0.154;2023-04-29T10:44:30;102161.94;;;22.69;51.36
70407;BME280;57821;52.202;0.154;2023-04-29T10:47:18;102156.91;;;23.16;47.85
70407;BME280;57821;52.202;0.154;2023-04-29T10:50:01;102159.63;;;23.39;48.24
70407;BME280;57821;52.202;0.154;2023-04-29T10:52:28;102164.53;;;23.51;44.36
70407;BME280;57821;52.202;0.154;2023-04-29T10:55:03;102161.69;;;23.56;44.92
70407;BME280;57821;52.202;0.154;2023-04-29T10:57:30;102160.13;;;23.50;46.00
70407;BME280;57821;52.202;0.154;2023-04-29T10:59:56;102166.03;;;23.58;45.21
70407;BME280;57821;52.202;0.154;2023-04-29T11:02:23;102163.09;;;23.66;42.92
70407;BME280;57821;52.202;0.154;2023-04-29T11:05:11;102169.38;;;23.63;42.17
70407;BME280;57821;52.202;0.154;2023-04-29T11:07:37;102170.56;;;23.55;44.01
70407;BME280;57821;52.202;0.154;2023-04-29T11:10:05;102166.47;;;23.46;43.10
70407;BME280;57821;52.202;0.154;2023-04-29T11:12:32;102158.44;;;23.48;42.06
70407;BME280;57821;52.202;0.154;2023-04-29T11:14:59;102159.41;;;23.45;41.86
70407;BME280;57821;52.202;0.154;2023-04-29T11:17:25;102159.84;;;23.33;42.37
70407;BME280;57821;52.202;0.154;2023-04-29T11:19:53;102150.19;;;23.30;42.18
70407;BME280;57821;52.202;0.154;2023-04-29T11:22:29;102148.50;;;23.29;41.16
70407;BME280;57821;52.202;0.154;2023-04-29T11:27:26;102143.94;;;22.82;42.23
70407;BME280;57821;52.202;0.154;2023-04-29T11:29:55;102151.72;;;22.59;43.07
70407;BME280;57821;52.202;0.154;2023-04-29T11:32:27;102147.13;;;22.64;43.55
70407;BME280;57821;52.202;0.154;2023-04-29T11:34:54;102151.75;;;22.85;42.86
70407;BME280;57821;52.202;0.154;2023-04-29T11:37:25;102150.00;;;23.12;41.49
70407;BME280;57821;52.202;0.154;2023-04-29T11:39:58;102147.13;;;23.18;41.61
70407;BME280;57821;52.202;0.154;2023-04-29T11:42:26;102145.53;;;23.39;41.67
70407;BME280;57821;52.202;0.154;2023-04-29T11:44:56;102143.13;;;23.57;40.87
70407;BME280;57821;52.202;0.154;2023-04-29T11:47:29;102157.16;;;23.59;41.41
70407;BME280;57821;52.202;0.154;2023-04-29T11:50:07;102156.06;;;23.65;40.60
70407;BME280;57821;52.202;0.154;2023-04-29T11:52:35;102151.50;;;23.70;40.62
70407;BME280;57821;52.202;0.154;2023-04-29T11:55:04;102147.53;;;23.82;40.99
70407;BME280;57821;52.202;0.154;2023-04-29T11:57:31;102143.38;;;23.98;39.32
70407;BME280;57821;52.202;0.154;2023-04-29T11:59:58;102147.53;;;24.05;39.49
70407;BME280;57821;52.202;0.154;2023-04-29T12:02:31;102144.66;;;24.11;38.69
70407;BME280;57821;52.202;0.154;2023-04-29T12:04:59;102144.75;;;24.08;38.48
70407;BME280;57821;52.202;0.154;2023-04-29T12:07:31;102135.38;;;23.99;39.40
70407;BME280;57821;52.202;0.154;2023-04-29T12:09:57;102141.50;;;23.77;39.55
70407;BME280;57821;52.202;0.154;2023-04-29T12:12:24;102146.50;;;23.61;39.88
70407;BME280;57821;52.202;0.154;2023-04-29T12:14:51;102140.00;;;23.46;40.47
70407;BME280;57821;52.202;0.154;2023-04-29T12:17:18;102137.06;;;23.29;40.14
70407;BME280;57821;52.202;0.154;2023-04-29T12:19:45;102153.59;;;23.09;39.74
70407;BME280;57821;52.202;0.154;2023-04-29T12:22:12;102138.78;;;22.77;40.01
70407;BME280;57821;52.202;0.154;2023-04-29T12:24:39;102138.72;;;22.51;39.47
70407;BME280;57821;52.202;0.154;2023-04-29T12:27:08;102142.22;;;22.24;40.25
70407;BME280;57821;52.202;0.154;2023-04-29T12:29:36;102138.50;;;22.01;40.11
70407;BME280;57821;52.202;0.154;2023-04-29T12:32:03;102139.81;;;21.85;40.69
70407;BME280;57821;52.202;0.154;2023-04-29T12:34:31;102146.19;;;21.78;41.43
70407;BME280;57821;52.202;0.154;2023-04-29T12:36:58;102144.63;;;21.71;41.91
70407;BME280;57821;52.202;0.154;2023-04-29T12:39:25;102146.53;;;21.66;41.68
70407;BME280;57821;52.202;0.154;2023-04-29T12:41:59;102141.63;;;21.52;41.63
70407;BME280;57821;52.202;0.154;2023-04-29T12:44:25;102141.94;;;21.40;41.20
70407;BME280;57821;52.202;0.154;2023-04-29T12:46:52;102140.53;;;21.27;41.79
70407;BME280;57821;52.202;0.154;2023-04-29T12:49:23;102139.16;;;21.11;41.63
70407;BME280;57821;52.202;0.154;2023-04-29T12:51:50;102136.97;;;20.94;41.78
70407;BME280;57821;52.202;0.154;2023-04-29T12:54:16;102131.94;;;20.85;41.56
70407;BME280;57821;52.202;0.154;2023-04-29T12:56:43;102136.50;;;20.77;42.29
70407;BME280;57821;52.202;0.154;2023-04-29T12:59:10;102135.72;;;20.73;42.94
70407;BME280;57821;52.202;0.154;2023-04-29T13:01:36;102139.50;;;20.62;43.02
70407;BME280;57821;52.202;0.154;2023-04-29T13:04:03;102134.53;;;20.49;42.98
70407;BME280;57821;52.202;0.154;2023-04-29T13:06:31;102128.44;;;20.46;43.46
70407;BME280;57821;52.202;0.154;2023-04-29T13:08:57;102131.81;;;20.53;43.70
70407;BME280;57821;52.202;0.154;2023-04-29T13:11:24;102131.91;;;20.49;43.46
70407;BME280;57821;52.202;0.154;2023-04-29T13:13:57;102129.28;;;20.49;43.72
70407;BME280;57821;52.202;0.154;2023-04-29T13:16:24;102122.13;;;20.55;43.61
70407;BME280;57821;52.202;0.154;2023-04-29T13:18:50;102125.41;;;20.63;43.72
70407;BME280;57821;52.202;0.154;2023-04-29T13:21:37;102133.88;;;20.77;43.85
70407;BME280;57821;52.202;0.154;2023-04-29T13:24:04;102128.22;;;20.92;43.48
70407;BME280;57821;52.202;0.154;2023-04-29T13:26:31;102122.44;;;21.12;42.83